Time;durP1;ratioP1;P1;durP2;ratioP2;P2;SDS_P1;SDS_P2;PMS_P1;PMS_P2;Temp;Humidity;BMP_temperature;BMP_pressure;BME280_temperature;BME280_humidity;BME280_pressure;Samples;Min_cycle;Max_cycle;Signal;HPM_P1;HPM_P2
2021/07/06 00:01:34;;;;;;;;;2.50;2.50;;;;;21.94;63.00;99916.00;4885450;29;45312;-71
2021/07/06 00:04:00;;;;;;;;;2.00;2.00;;;;;21.92;63.26;99896.22;4896751;29;45356;-71
2021/07/06 00:06:25;;;;;;;;;2.50;2.00;;;;;22.02;63.04;99897.97;4884446;29;45507;-70
2021/07/06 00:08:51;;;;;;;;;2.25;2.25;;;;;21.88;62.91;99892.09;4903083;29;45306;-71
2021/07/06 00:11:16;;;;;;;;;2.00;2.00;;;;;21.88;63.12;99909.25;4904348;29;46205;-70
2021/07/06 00:13:42;;;;;;;;;2.00;2.00;;;;;22.07;62.81;99943.72;4868654;29;45327;-71
2021/07/06 00:16:08;;;;;;;;;1.00;1.00;;;;;21.81;62.86;99884.50;4877741;29;45350;-70
2021/07/06 00:18:33;;;;;;;;;1.00;1.00;;;;;22.04;62.93;99916.84;4885162;29;45680;-70
2021/07/06 00:21:00;;;;;;;;;2.00;1.00;;;;;21.78;62.40;99865.78;4885075;29;46379;-70
2021/07/06 00:23:29;;;;;;;;;2.00;2.00;;;;;21.85;62.67;99885.09;4868829;29;45609;-70
2021/07/06 00:25:55;;;;;;;;;1.75;1.00;;;;;22.02;62.47;99907.97;4896713;29;45336;-71
2021/07/06 00:28:20;;;;;;;;;2.00;2.00;;;;;21.80;61.92;99860.22;4898993;29;45320;-70
2021/07/06 00:30:46;;;;;;;;;0.75;0.75;;;;;21.81;61.94;99868.22;4885026;29;46150;-71
2021/07/06 00:33:11;;;;;;;;;2.00;1.00;;;;;21.94;61.80;99911.41;4884766;29;45241;-70
2021/07/06 00:35:37;;;;;;;;;1.25;0.50;;;;;21.77;61.50;99864.09;4884097;29;45246;-70
2021/07/06 00:38:02;;;;;;;;;1.25;1.25;;;;;21.90;61.73;99893.69;4884927;29;45478;-70
2021/07/06 00:40:28;;;;;;;;;1.00;1.00;;;;;21.81;62.11;99870.94;4885117;29;46193;-70
2021/07/06 00:42:59;;;;;;;;;2.50;1.00;;;;;21.78;61.50;99857.63;4905348;28;45511;-70
2021/07/06 00:45:26;;;;;;;;;0.00;0.00;;;;;21.81;61.77;99870.94;4893841;29;45218;-70
2021/07/06 00:47:51;;;;;;;;;1.00;1.00;;;;;21.90;61.66;99893.69;4885167;29;45512;-70
2021/07/06 00:50:19;;;;;;;;;1.00;1.00;;;;;21.77;61.27;99888.53;4883334;29;47358;-71
2021/07/06 00:52:45;;;;;;;;;0.00;0.00;;;;;21.70;61.05;99867.50;4891193;29;45428;-70
2021/07/06 00:55:11;;;;;;;;;1.00;1.00;;;;;21.76;61.57;99872.38;4886980;29;45330;-70
2021/07/06 00:57:37;;;;;;;;;1.00;1.00;;;;;21.62;60.92;99841.09;4897362;29;45348;-71
2021/07/06 01:00:09;;;;;;;;;0.50;0.50;;;;;21.81;61.40;99878.25;4867566;29;46109;-70
2021/07/06 01:02:35;;;;;;;;;0.00;0.00;;;;;21.77;61.21;99876.81;4867799;29;45541;-70
2021/07/06 01:05:02;;;;;;;;;0.00;0.00;;;;;21.94;61.04;99910.56;4884790;29;45526;-70
2021/07/06 01:07:27;;;;;;;;;1.00;1.00;;;;;21.94;61.42;99911.41;4884823;29;45555;-70
2021/07/06 01:09:52;;;;;;;;;0.00;0.00;;;;;21.94;60.66;99913.28;4902427;29;45443;-71
2021/07/06 01:12:18;;;;;;;;;1.50;0.00;;;;;21.71;61.03;99867.38;4903457;29;45278;-71
2021/07/06 01:14:43;;;;;;;;;0.00;0.00;;;;;21.72;61.23;99870.94;4886539;29;45712;-70
2021/07/06 01:17:10;;;;;;;;;0.00;0.00;;;;;21.89;60.96;99924.56;4882462;29;46132;-71
2021/07/06 01:19:41;;;;;;;;;0.00;0.00;;;;;21.87;60.95;99928.41;4880237;29;46954;-68
2021/07/06 01:22:07;;;;;;;;;0.25;0.25;;;;;21.65;60.72;99906.84;4903485;29;45712;-68
2021/07/06 01:24:39;;;;;;;;;1.00;0.00;;;;;21.61;60.57;99915.41;4886249;29;45544;-68
2021/07/06 01:27:05;;;;;;;;;0.75;0.75;;;;;21.56;60.44;99898.66;4886403;29;46022;-68
2021/07/06 01:29:31;;;;;;;;;0.50;0.50;;;;;21.62;60.51;99900.81;4888893;29;45506;-68
2021/07/06 01:31:56;;;;;;;;;0.00;0.00;;;;;21.61;60.51;99901.81;4884661;29;45466;-68
2021/07/06 01:34:21;;;;;;;;;0.00;0.00;;;;;21.57;60.39;99900.41;4883019;29;45337;-68
2021/07/06 01:36:47;;;;;;;;;0.00;0.00;;;;;21.75;60.02;99934.00;4884576;29;45483;-68
2021/07/06 01:39:19;;;;;;;;;0.25;0.25;;;;;21.81;60.51;99938.00;4882799;29;47079;-68
2021/07/06 01:41:45;;;;;;;;;1.00;0.00;;;;;21.60;60.15;99900.09;4881410;28;45708;-68
2021/07/06 01:44:27;;;;;;;;;0.00;0.00;;;;;21.69;60.07;99934.56;4891372;28;45491;-68
2021/07/06 01:46:54;;;;;;;;;0.00;0.00;;;;;21.71;60.51;99931.69;4891891;29;45319;-68
2021/07/06 01:49:20;;;;;;;;;2.00;0.00;;;;;21.72;59.90;99930.69;4883906;29;46671;-68
2021/07/06 01:51:47;;;;;;;;;0.00;0.00;;;;;21.56;60.13;99914.97;4882914;29;45359;-68
2021/07/06 01:54:14;;;;;;;;;0.00;0.00;;;;;21.65;59.82;99933.09;4884278;29;45594;-68
2021/07/06 01:56:45;;;;;;;;;0.00;0.00;;;;;21.49;59.26;99919.25;4867411;29;45492;-68
2021/07/06 01:59:11;;;;;;;;;0.00;0.00;;;;;21.65;59.81;99972.00;4884132;29;46123;-68
2021/07/06 02:01:38;;;;;;;;;0.00;0.00;;;;;21.65;59.20;99976.56;4879889;29;46174;-68
2021/07/06 02:04:04;;;;;;;;;0.00;0.00;;;;;21.52;59.79;99975.97;4867363;29;45438;-68
2021/07/06 02:06:30;;;;;;;;;0.00;0.00;;;;;21.60;59.55;99985.16;4886013;29;45417;-68
2021/07/06 02:08:55;;;;;;;;;0.00;0.00;;;;;21.55;59.52;99994.69;4877776;29;47525;-68
2021/07/06 02:11:21;;;;;;;;;0.00;0.00;;;;;21.37;59.30;99954.63;4887709;29;45227;-68
2021/07/06 02:13:47;;;;;;;;;0.00;0.00;;;;;21.41;59.00;99987.78;4899644;29;45261;-68
2021/07/06 02:16:13;;;;;;;;;0.75;0.00;;;;;21.49;59.40;100017.00;4887158;29;45424;-69
2021/07/06 02:18:39;;;;;;;;;0.00;0.00;;;;;21.36;59.77;100015.31;4895447;29;46134;-68
2021/07/06 02:21:05;;;;;;;;;0.00;0.00;;;;;21.35;59.93;100035.34;4887002;29;45538;-68
2021/07/06 02:23:31;;;;;;;;;0.00;0.00;;;;;21.17;60.08;99998.97;4887259;29;45507;-68
2021/07/06 02:26:08;;;;;;;;;0.00;0.00;;;;;21.28;60.48;100028.72;4880611;29;45468;-70
2021/07/06 02:28:35;;;;;;;;;0.00;0.00;;;;;21.22;59.51;100040.13;4869297;29;48211;-70
2021/07/06 02:31:01;;;;;;;;;0.00;0.00;;;;;21.25;59.63;100040.72;4885630;29;45766;-70
2021/07/06 02:33:32;;;;;;;;;1.75;0.00;;;;;21.22;59.48;100035.56;4886961;29;45450;-70
2021/07/06 02:35:58;;;;;;;;;0.00;0.00;;;;;21.22;59.16;100029.28;4886802;29;45428;-70
2021/07/06 02:38:24;;;;;;;;;0.00;0.00;;;;;21.17;59.78;100029.69;4885567;29;47658;-70
2021/07/06 02:40:50;;;;;;;;;0.00;0.00;;;;;21.01;59.72;100003.03;4887010;29;45339;-70
2021/07/06 02:43:15;;;;;;;;;0.00;0.00;;;;;21.14;59.49;100029.09;4880744;29;45471;-70
2021/07/06 02:45:41;;;;;;;;;0.00;0.00;;;;;21.00;60.19;99989.59;4878730;29;45670;-70
2021/07/06 02:48:08;;;;;;;;;0.00;0.00;;;;;21.03;59.88;100011.03;4869729;29;47114;-70
2021/07/06 02:50:36;;;;;;;;;0.00;0.00;;;;;20.93;59.99;100005.53;4886699;29;45866;-70
2021/07/06 02:53:01;;;;;;;;;2.00;0.00;;;;;20.92;60.09;100012.84;4878067;29;45406;-70
2021/07/06 02:55:27;;;;;;;;;0.00;0.00;;;;;20.89;60.15;100017.69;4903347;29;45371;-71
2021/07/06 02:57:53;;;;;;;;;0.00;0.00;;;;;20.86;60.54;100001.66;4885118;29;48202;-70
2021/07/06 03:00:24;;;;;;;;;0.00;0.00;;;;;21.03;60.68;100030.03;4884940;29;45894;-71
2021/07/06 03:02:52;;;;;;;;;0.00;0.00;;;;;20.83;60.78;100004.63;4869773;29;45363;-70
2021/07/06 03:05:19;;;;;;;;;0.00;0.00;;;;;20.83;60.76;100007.34;4869660;29;45876;-70
2021/07/06 03:07:45;;;;;;;;;0.00;0.00;;;;;20.95;60.64;100038.84;4887967;29;45385;-70
2021/07/06 03:10:17;;;;;;;;;0.00;0.00;;;;;21.02;60.34;100044.59;4888822;29;45225;-71
2021/07/06 03:12:43;;;;;;;;;0.25;0.25;;;;;20.76;60.75;100011.59;4886529;29;45411;-70
2021/07/06 03:15:11;;;;;;;;;0.00;0.00;;;;;20.79;60.83;100011.34;4886014;29;45579;-70
2021/07/06 03:17:36;;;;;;;;;0.00;0.00;;;;;20.67;60.42;100003.25;4876802;29;48274;-70
2021/07/06 03:20:04;;;;;;;;;0.00;0.00;;;;;20.80;60.44;100023.88;4887530;29;45246;-70
2021/07/06 03:22:30;;;;;;;;;0.00;0.00;;;;;20.89;60.73;100033.94;4886277;29;45295;-70
2021/07/06 03:24:56;;;;;;;;;0.00;0.00;;;;;20.70;60.32;99997.59;4889771;29;45375;-70
2021/07/06 03:27:21;;;;;;;;;0.00;0.00;;;;;20.68;60.26;99994.16;4905019;29;46306;-70
2021/07/06 03:29:47;;;;;;;;;0.00;0.00;;;;;20.63;60.17;99992.81;4888353;29;45382;-70
2021/07/06 03:32:12;;;;;;;;;0.00;0.00;;;;;20.68;59.93;100007.72;4886164;29;45663;-70
2021/07/06 03:34:39;;;;;;;;;0.00;0.00;;;;;20.75;59.85;100021.59;4884654;29;45351;-70
2021/07/06 03:37:07;;;;;;;;;0.00;0.00;;;;;20.82;59.79;100024.63;4884768;29;47343;-70
2021/07/06 03:39:35;;;;;;;;;0.75;0.75;;;;;20.78;59.90;100028.59;4885881;29;45551;-70
2021/07/06 03:42:00;;;;;;;;;0.00;0.00;;;;;20.52;59.92;99983.72;4902629;28;45362;-71
2021/07/06 03:44:26;;;;;;;;;0.00;0.00;;;;;20.63;59.48;100009.06;4872305;29;45589;-70
2021/07/06 03:46:51;;;;;;;;;0.00;0.00;;;;;20.53;59.37;99993.59;4893499;29;45431;-71
2021/07/06 03:49:17;;;;;;;;;0.50;0.50;;;;;20.53;59.70;100001.72;4884387;29;45467;-70
2021/07/06 03:51:42;;;;;;;;;1.25;0.00;;;;;20.58;58.70;100023.03;4885975;29;45436;-70
2021/07/06 03:54:07;;;;;;;;;0.25;0.00;;;;;20.45;58.99;99993.38;4885892;29;46685;-70
2021/07/06 03:56:33;;;;;;;;;0.00;0.00;;;;;20.65;59.42;100032.38;4885618;29;46378;-70
2021/07/06 03:58:58;;;;;;;;;0.00;0.00;;;;;20.41;59.20;100000.03;4885535;29;45433;-70
2021/07/06 04:01:23;;;;;;;;;0.25;0.00;;;;;20.43;58.62;100005.34;4884449;29;45298;-70
2021/07/06 04:03:49;;;;;;;;;0.00;0.00;;;;;20.28;58.26;99994.84;4884327;29;45891;-70
2021/07/06 04:06:14;;;;;;;;;0.00;0.00;;;;;20.28;57.90;100010.22;4895751;29;47500;-70
2021/07/06 04:08:39;;;;;;;;;1.00;0.00;;;;;20.21;57.99;100003.59;4889903;29;45279;-70
2021/07/06 04:11:05;;;;;;;;;0.00;0.00;;;;;20.14;57.67;100005.97;4885715;29;45234;-70
2021/07/06 04:13:30;;;;;;;;;1.50;0.25;;;;;20.37;57.91;100052.81;4885483;29;45215;-70
2021/07/06 04:15:55;;;;;;;;;0.25;0.00;;;;;20.34;56.83;100059.34;4868434;29;48104;-70
2021/07/06 04:18:21;;;;;;;;;0.00;0.00;;;;;20.31;57.23;100062.34;4893552;29;45255;-70
2021/07/06 04:20:46;;;;;;;;;0.25;0.00;;;;;20.28;57.09;100062.59;4885446;29;45306;-70
2021/07/06 04:23:12;;;;;;;;;0.00;0.00;;;;;20.24;57.24;100057.53;4885242;29;45225;-70
2021/07/06 04:25:38;;;;;;;;;1.00;0.00;;;;;20.09;57.06;100036.16;4892872;28;47587;-70
2021/07/06 04:28:04;;;;;;;;;2.00;1.00;;;;;20.20;57.00;100059.66;4883941;29;45276;-70
2021/07/06 04:30:29;;;;;;;;;0.00;0.00;;;;;20.07;56.91;100058.97;4885369;29;45373;-70
2021/07/06 04:32:54;;;;;;;;;0.00;0.00;;;;;20.01;57.24;100049.47;4884957;29;45419;-70
2021/07/06 04:35:22;;;;;;;;;2.25;0.00;;;;;19.88;57.32;100040.63;4868213;29;47194;-70
2021/07/06 04:37:48;;;;;;;;;2.25;0.50;;;;;19.95;56.48;100047.28;4897555;29;45497;-70
2021/07/06 04:40:14;;;;;;;;;0.00;0.00;;;;;19.98;56.77;100064.16;4868392;29;45303;-70
2021/07/06 04:42:40;;;;;;;;;0.00;0.00;;;;;20.03;56.71;100073.72;4897328;29;45225;-70
2021/07/06 04:45:06;;;;;;;;;0.50;0.50;;;;;20.06;56.63;100087.88;4891350;29;45308;-70
2021/07/06 04:47:32;;;;;;;;;0.00;0.00;;;;;19.90;56.87;100066.63;4887562;29;45515;-70
2021/07/06 04:49:57;;;;;;;;;0.75;0.75;;;;;19.99;56.52;100078.53;4885293;29;45349;-70
2021/07/06 04:52:23;;;;;;;;;0.75;0.75;;;;;20.05;56.74;100097.00;4884737;29;45268;-70
2021/07/06 04:54:48;;;;;;;;;1.50;1.00;;;;;19.72;56.02;100057.28;4867834;29;47195;-70
2021/07/06 04:57:13;;;;;;;;;0.50;0.00;;;;;19.92;56.43;100088.16;4884941;29;45301;-70
2021/07/06 04:59:39;;;;;;;;;0.25;0.00;;;;;19.69;56.28;100071.91;4884764;29;45383;-70
2021/07/06 05:02:05;;;;;;;;;2.00;1.00;;;;;19.73;56.70;100078.81;4880847;29;45678;-70
2021/07/06 05:04:31;;;;;;;;;1.50;0.25;;;;;19.93;56.64;100112.41;4877806;29;47146;-70
2021/07/06 05:06:57;;;;;;;;;2.00;1.00;;;;;19.92;56.23;100110.69;4903566;29;45458;-70
2021/07/06 05:09:22;;;;;;;;;0.00;0.00;;;;;19.58;56.51;100053.00;4903803;29;45416;-70
2021/07/06 05:11:48;;;;;;;;;0.00;0.00;;;;;19.83;56.76;100103.31;4903394;29;45448;-70
2021/07/06 05:14:13;;;;;;;;;2.00;1.00;;;;;19.64;56.16;100079.53;4886029;29;48682;-70
2021/07/06 05:16:38;;;;;;;;;0.00;0.00;;;;;19.79;56.17;100112.66;4903360;29;45419;-70
2021/07/06 05:19:04;;;;;;;;;2.75;0.00;;;;;19.76;56.23;100107.50;4878191;29;45323;-70
2021/07/06 05:21:29;;;;;;;;;1.75;0.00;;;;;19.69;56.26;100098.97;4886204;29;45634;-70
2021/07/06 05:23:54;;;;;;;;;0.50;0.00;;;;;19.55;55.89;100078.44;4903308;29;45507;-70
2021/07/06 05:26:20;;;;;;;;;1.25;0.00;;;;;19.52;55.68;100078.69;4902878;29;45210;-70
2021/07/06 05:28:45;;;;;;;;;0.50;0.50;;;;;19.73;55.08;100118.53;4878244;29;45239;-70
2021/07/06 05:31:11;;;;;;;;;0.00;0.00;;;;;19.58;55.35;100104.41;4883086;29;45725;-70
2021/07/06 05:33:36;;;;;;;;;2.25;1.00;;;;;19.65;54.76;100129.16;4867166;29;47031;-70
2021/07/06 05:36:02;;;;;;;;;4.50;0.00;;;;;19.62;54.65;100136.50;4886067;29;45306;-70
2021/07/06 05:38:27;;;;;;;;;2.00;1.00;;;;;19.41;54.58;100105.75;4897945;29;45526;-70
2021/07/06 05:40:54;;;;;;;;;0.00;0.00;;;;;19.47;54.42;100112.53;4889669;29;45301;-70
2021/07/06 05:43:21;;;;;;;;;1.00;0.75;;;;;19.37;54.32;100112.41;4897879;29;46506;-70
2021/07/06 05:45:46;;;;;;;;;2.00;1.00;;;;;19.49;54.77;100135.78;4896860;29;45488;-69
2021/07/06 05:48:12;;;;;;;;;2.00;1.00;;;;;19.40;54.49;100123.84;4879338;29;45447;-69
2021/07/06 05:50:37;;;;;;;;;0.00;0.00;;;;;19.48;54.68;100147.59;4904009;29;45527;-70
2021/07/06 05:53:03;;;;;;;;;0.25;0.25;;;;;19.43;54.60;100136.28;4870390;29;46805;-69
2021/07/06 05:55:28;;;;;;;;;1.50;1.00;;;;;19.44;54.54;100136.16;4870421;29;45428;-70
2021/07/06 05:57:53;;;;;;;;;1.00;1.00;;;;;19.27;54.56;100106.00;4887719;29;45367;-70
2021/07/06 06:00:19;;;;;;;;;1.00;1.00;;;;;19.24;54.64;100101.66;4887196;29;45369;-69
2021/07/06 06:02:46;;;;;;;;;1.00;1.00;;;;;19.44;54.23;100137.97;4887339;29;46330;-70
2021/07/06 06:05:12;;;;;;;;;1.75;1.00;;;;;19.23;54.72;100110.78;4882732;29;45592;-69
2021/07/06 06:07:41;;;;;;;;;1.00;1.00;;;;;19.44;54.99;100156.94;4887606;29;45531;-70
2021/07/06 06:10:09;;;;;;;;;1.00;1.00;;;;;19.38;55.12;100155.56;4902492;29;45548;-71
2021/07/06 06:12:35;;;;;;;;;1.00;0.75;;;;;19.30;55.37;100149.06;4903565;29;46573;-74
2021/07/06 06:15:01;;;;;;;;;2.75;1.00;;;;;19.35;55.49;100165.78;4905600;29;45613;-72
2021/07/06 06:17:27;;;;;;;;;1.25;1.00;;;;;19.31;55.07;100164.28;4902274;29;45492;-72
2021/07/06 06:19:52;;;;;;;;;2.00;0.25;;;;;19.25;55.41;100138.59;4905558;29;45225;-73
2021/07/06 06:22:17;;;;;;;;;1.25;1.00;;;;;19.16;54.80;100139.28;4905801;29;46357;-73
2021/07/06 06:24:43;;;;;;;;;1.75;1.00;;;;;19.09;54.43;100130.78;4903419;29;45431;-72
2021/07/06 06:27:08;;;;;;;;;2.00;1.00;;;;;19.20;55.00;100155.16;4905967;29;45293;-72
2021/07/06 06:29:34;;;;;;;;;3.00;1.75;;;;;19.27;54.24;100163.66;4905597;29;45472;-73
2021/07/06 06:32:00;;;;;;;;;1.25;1.00;;;;;19.11;54.97;100163.13;4905804;29;45505;-72
2021/07/06 06:34:25;;;;;;;;;2.25;2.00;;;;;19.05;54.29;100165.34;4898530;29;45286;-73
2021/07/06 06:36:50;;;;;;;;;3.00;1.00;;;;;19.33;54.56;100217.31;4884551;29;45276;-72
2021/07/06 06:39:16;;;;;;;;;2.00;1.25;;;;;19.34;54.85;100213.63;4901209;29;45415;-72
2021/07/06 06:41:41;;;;;;;;;1.00;1.00;;;;;19.22;54.66;100207.31;4895254;29;45432;-73
2021/07/06 06:44:09;;;;;;;;;1.00;1.00;;;;;19.10;54.06;100175.81;4886620;29;45495;-73
2021/07/06 06:46:34;;;;;;;;;2.50;1.25;;;;;19.24;54.63;100216.19;4897075;29;45530;-73
2021/07/06 06:49:04;;;;;;;;;1.75;1.00;;;;;19.12;54.09;100184.66;4894895;29;45275;-73
2021/07/06 06:51:30;;;;;;;;;2.00;2.00;;;;;19.15;54.09;100197.94;4904285;29;45533;-71
2021/07/06 06:53:55;;;;;;;;;1.75;1.75;;;;;19.34;54.26;100215.47;4890188;29;45460;-71
2021/07/06 06:56:20;;;;;;;;;1.00;1.00;;;;;19.27;54.27;100215.06;4901918;29;45323;-71
2021/07/06 06:58:46;;;;;;;;;3.25;2.00;;;;;19.27;54.76;100222.34;4897960;29;45472;-71
2021/07/06 07:01:11;;;;;;;;;1.25;1.25;;;;;19.19;54.78;100210.25;4889856;29;48074;-71
2021/07/06 07:03:36;;;;;;;;;1.00;1.00;;;;;19.21;54.48;100212.84;4884626;29;45499;-71
2021/07/06 07:06:02;;;;;;;;;3.00;1.00;;;;;19.33;54.69;100236.25;4888418;29;45418;-72
2021/07/06 07:08:27;;;;;;;;;0.25;0.25;;;;;19.24;55.00;100226.13;4892918;29;45548;-71
2021/07/06 07:10:53;;;;;;;;;2.00;1.00;;;;;19.27;55.13;100234.03;4891082;29;48227;-71
2021/07/06 07:13:18;;;;;;;;;2.50;2.50;;;;;19.28;55.01;100246.59;4885399;29;45420;-71
2021/07/06 07:15:44;;;;;;;;;1.00;1.00;;;;;19.30;54.48;100244.63;4903224;29;45288;-71
2021/07/06 07:18:10;;;;;;;;;2.50;1.00;;;;;19.31;54.10;100240.06;4879186;29;45416;-71
2021/07/06 07:20:36;;;;;;;;;4.00;2.00;;;;;19.37;54.54;100245.00;4892345;29;45381;-71
2021/07/06 07:23:01;;;;;;;;;1.75;1.00;;;;;19.39;55.07;100248.44;4895657;29;45430;-71
2021/07/06 07:25:27;;;;;;;;;3.00;1.00;;;;;19.39;54.89;100257.41;4892020;29;45457;-71
2021/07/06 07:27:52;;;;;;;;;2.00;2.00;;;;;19.20;55.08;100233.63;4898386;29;45401;-71
2021/07/06 07:30:20;;;;;;;;;2.25;2.00;;;;;19.25;55.09;100242.25;4883256;29;46304;-71
2021/07/06 07:32:46;;;;;;;;;3.50;0.75;;;;;19.32;54.91;100252.63;4884897;29;45624;-71
2021/07/06 07:35:13;;;;;;;;;2.50;2.00;;;;;19.05;54.66;100203.19;4883894;29;45485;-71
2021/07/06 07:37:40;;;;;;;;;4.00;2.50;;;;;19.35;55.07;100261.34;4885195;29;45399;-71
2021/07/06 07:40:07;;;;;;;;;2.25;2.00;;;;;19.41;54.90;100271.72;4897452;29;46460;-71
2021/07/06 07:42:32;;;;;;;;;2.00;2.00;;;;;19.29;55.05;100264.53;4897373;28;45404;-71
2021/07/06 07:44:58;;;;;;;;;4.00;1.25;;;;;19.31;54.80;100272.53;4883132;29;45410;-72
2021/07/06 07:47:24;;;;;;;;;3.50;3.00;;;;;19.29;55.21;100269.94;4863280;29;46282;-73
2021/07/06 07:49:49;;;;;;;;;5.25;3.00;;;;;19.24;54.91;100278.44;4876542;29;46796;-72
2021/07/06 07:52:15;;;;;;;;;2.25;1.00;;;;;19.02;54.58;100246.72;4895532;29;45490;-76
2021/07/06 07:54:41;;;;;;;;;2.00;2.00;;;;;19.25;55.10;100279.28;4880976;29;45524;-74
2021/07/06 07:57:09;;;;;;;;;5.00;1.75;;;;;19.07;55.38;100249.06;4885781;29;45844;-72
2021/07/06 07:59:35;;;;;;;;;1.75;1.75;;;;;18.98;55.23;100239.81;4901322;29;47179;-75
2021/07/06 08:02:01;;;;;;;;;2.00;1.75;;;;;19.06;55.19;100240.09;4888428;29;45288;-73
2021/07/06 08:04:27;;;;;;;;;2.25;1.25;;;;;19.06;55.46;100259.03;4892357;29;45295;-73
2021/07/06 08:06:52;;;;;;;;;3.50;1.50;;;;;18.94;55.14;100229.34;4882371;29;45687;-74
2021/07/06 08:09:17;;;;;;;;;5.00;3.50;;;;;19.19;55.13;100272.47;4891103;29;45421;-74
2021/07/06 08:11:43;;;;;;;;;1.25;1.25;;;;;19.36;55.44;100306.41;4883421;29;45426;-74
2021/07/06 08:14:08;;;;;;;;;1.50;1.25;;;;;19.26;54.90;100289.09;4884861;29;45521;-74
2021/07/06 08:16:34;;;;;;;;;3.25;2.00;;;;;19.09;54.94;100257.94;4883865;29;45947;-74
2021/07/06 08:18:59;;;;;;;;;3.25;1.00;;;;;19.15;54.74;100272.84;4895799;29;45861;-74
2021/07/06 08:21:25;;;;;;;;;3.75;1.75;;;;;19.33;55.02;100311.16;4867818;29;45469;-74
2021/07/06 08:23:50;;;;;;;;;1.50;1.50;;;;;19.03;55.11;100269.22;4885465;29;45564;-74
2021/07/06 08:26:17;;;;;;;;;2.75;2.75;;;;;19.14;55.10;100299.00;4897902;29;45501;-74
2021/07/06 08:28:45;;;;;;;;;2.00;2.00;;;;;19.19;55.15;100309.50;4883538;29;46615;-74
2021/07/06 08:31:11;;;;;;;;;1.00;1.00;;;;;19.30;55.11;100317.69;4882930;29;45399;-74
2021/07/06 08:33:36;;;;;;;;;4.00;2.75;;;;;19.31;54.52;100323.94;4884576;29;45519;-74
2021/07/06 08:36:02;;;;;;;;;3.25;2.00;;;;;19.36;54.79;100332.56;4872122;29;46020;-74
2021/07/06 08:38:27;;;;;;;;;2.00;2.00;;;;;19.10;54.58;100291.28;4873135;29;46538;-74
2021/07/06 08:40:53;;;;;;;;;3.00;2.25;;;;;19.21;54.46;100307.53;4882476;29;45392;-74
2021/07/06 08:43:19;;;;;;;;;2.25;1.25;;;;;19.37;54.88;100335.16;4892716;29;45449;-74
2021/07/06 08:45:45;;;;;;;;;4.00;2.25;;;;;19.24;54.65;100327.13;4882215;29;45702;-74
2021/07/06 08:48:14;;;;;;;;;3.25;2.00;;;;;19.32;54.91;100333.81;4876465;29;47558;-73
2021/07/06 08:50:39;;;;;;;;;4.00;1.75;;;;;19.25;54.62;100325.28;4891079;29;45478;-73
2021/07/06 08:53:05;;;;;;;;;3.00;2.00;;;;;19.46;54.67;100367.94;4884228;29;45565;-74
2021/07/06 08:55:30;;;;;;;;;2.75;2.00;;;;;19.22;54.58;100336.31;4883176;29;45328;-74
2021/07/06 08:57:59;;;;;;;;;3.25;2.00;;;;;19.38;54.67;100365.81;4883486;29;45355;-74
2021/07/06 09:00:29;;;;;;;;;4.50;3.00;;;;;19.24;54.55;100335.25;4883680;29;45484;-74
2021/07/06 09:02:57;;;;;;;;;4.00;2.00;;;;;19.39;54.52;100345.88;4884040;29;45497;-74
2021/07/06 09:05:25;;;;;;;;;4.25;2.00;;;;;19.23;54.94;100325.41;4876637;29;45472;-73
2021/07/06 09:07:51;;;;;;;;;2.75;1.00;;;;;19.20;54.31;100320.22;4885733;29;45383;-73
2021/07/06 09:10:22;;;;;;;;;3.50;2.00;;;;;19.27;54.43;100331.44;4900911;29;45407;-74
2021/07/06 09:12:51;;;;;;;;;4.00;2.50;;;;;19.30;54.48;100339.31;4895040;29;45414;-74
2021/07/06 09:15:18;;;;;;;;;3.00;2.00;;;;;19.62;54.07;100376.63;4868862;29;45650;-74
2021/07/06 09:17:43;;;;;;;;;3.50;1.00;;;;;19.56;54.75;100372.53;4894691;29;45554;-74
2021/07/06 09:20:10;;;;;;;;;2.00;0.75;;;;;19.35;54.33;100341.69;4883957;29;45541;-74
2021/07/06 09:22:36;;;;;;;;;2.00;2.00;;;;;19.58;53.95;100377.84;4883083;29;45304;-74
2021/07/06 09:25:09;;;;;;;;;2.50;1.75;;;;;19.31;53.81;100329.34;4885771;29;45470;-74
2021/07/06 09:27:42;;;;;;;;;3.00;2.00;;;;;19.42;54.32;100348.34;4902012;29;46265;-74
2021/07/06 09:30:12;;;;;;;;;4.00;2.00;;;;;19.68;53.83;100396.94;4866106;29;45424;-74
2021/07/06 09:32:43;;;;;;;;;2.75;2.75;;;;;19.70;54.54;100398.56;4883361;29;45394;-74
2021/07/06 09:35:14;;;;;;;;;3.00;2.00;;;;;19.67;54.23;100378.97;4881693;29;45514;-72
2021/07/06 09:37:54;;;;;;;;;3.00;2.00;;;;;19.28;54.74;100325.06;4884222;29;46213;-74
2021/07/06 09:40:38;;;;;;;;;4.00;2.00;;;;;19.73;54.41;100378.50;4873473;29;45461;-74
2021/07/06 09:43:15;;;;;;;;;2.00;2.00;;;;;19.63;55.15;100357.56;4895517;29;45621;-73
2021/07/06 09:45:42;;;;;;;;;5.50;3.00;;;;;19.89;54.32;100384.50;4895167;29;45578;-73
2021/07/06 09:48:11;;;;;;;;;3.25;3.25;;;;;19.96;54.43;100387.59;4885427;29;47308;-74
2021/07/06 09:50:39;;;;;;;;;1.00;1.00;;;;;19.68;53.77;100329.25;4856142;29;45313;-74
2021/07/06 09:53:32;;;;;;;;;3.75;1.00;;;;;19.78;53.76;100354.69;4893172;29;45452;-74
2021/07/06 09:55:58;;;;;;;;;2.75;2.00;;;;;19.77;53.60;100337.56;4893561;29;45578;-74
2021/07/06 09:58:24;;;;;;;;;0.00;0.00;;;;;20.07;52.85;100375.94;4882573;29;46665;-74
2021/07/06 10:00:51;;;;;;;;;1.00;1.00;;;;;19.85;52.65;100325.28;4881854;29;45527;-73
2021/07/06 10:03:17;;;;;;;;;1.25;1.25;;;;;20.11;52.20;100377.41;4883320;29;45438;-74
2021/07/06 10:05:44;;;;;;;;;1.00;1.00;;;;;19.83;52.16;100332.63;4882720;29;45456;-74
2021/07/06 10:08:13;;;;;;;;;3.00;1.00;;;;;20.20;51.92;100382.13;4886336;29;46540;-77
2021/07/06 10:10:38;;;;;;;;;2.00;2.00;;;;;20.00;51.89;100362.00;4881813;29;45587;-74
2021/07/06 10:13:07;;;;;;;;;2.75;1.00;;;;;20.10;51.58;100370.28;4883329;29;45424;-75
2021/07/06 10:15:33;;;;;;;;;2.00;1.00;;;;;20.08;51.38;100370.41;4881180;29;45859;-74
2021/07/06 10:17:58;;;;;;;;;1.00;1.00;;;;;20.18;51.47;100381.38;4890697;29;45666;-75
2021/07/06 10:20:28;;;;;;;;;1.00;1.00;;;;;20.17;50.80;100368.81;4882743;29;45334;-74
2021/07/06 10:22:58;;;;;;;;;0.25;0.25;;;;;20.16;50.45;100367.06;4868199;29;45449;-74
2021/07/06 10:25:30;;;;;;;;;1.00;1.00;;;;;20.27;50.53;100372.50;4886058;29;45566;-73
2021/07/06 10:27:58;;;;;;;;;1.25;1.00;;;;;20.40;50.87;100401.34;4903117;29;45566;-74
2021/07/06 10:30:30;;;;;;;;;2.00;2.00;;;;;20.47;50.14;100410.75;4884835;29;45422;-74
2021/07/06 10:33:00;;;;;;;;;1.00;1.00;;;;;20.28;51.23;100370.66;4885941;29;45447;-74
2021/07/06 10:35:38;;;;;;;;;2.00;1.00;;;;;20.58;50.41;100410.75;4875926;29;45889;-74
2021/07/06 10:38:40;;;;;;;;;0.75;0.75;;;;;20.63;50.69;100414.00;4885825;29;46140;-74
2021/07/06 10:41:20;;;;;;;;;1.00;1.00;;;;;20.64;49.90;100418.41;4834959;28;45631;-74
2021/07/06 10:43:46;;;;;;;;;2.25;0.25;;;;;20.62;50.71;100414.94;4898734;28;45296;-74
2021/07/06 10:46:20;;;;;;;;;1.75;1.75;;;;;20.63;50.57;100427.56;4885983;29;45604;-74
2021/07/06 10:48:56;;;;;;;;;1.00;1.00;;;;;20.40;49.92;100385.09;4885962;29;48586;-73
2021/07/06 10:51:34;;;;;;;;;1.00;1.00;;;;;20.73;49.89;100431.25;4884043;29;45671;-74
2021/07/06 10:54:14;;;;;;;;;1.50;1.50;;;;;20.72;49.69;100426.81;4884523;29;45519;-74
2021/07/06 10:56:45;;;;;;;;;3.00;2.00;;;;;20.76;50.46;100437.41;4904057;29;45682;-73
2021/07/06 10:59:26;;;;;;;;;1.00;1.00;;;;;20.49;49.83;100406.06;4897248;29;45538;-73
2021/07/06 11:01:54;;;;;;;;;4.25;1.00;;;;;20.81;50.21;100451.47;4881654;29;45442;-73
2021/07/06 11:04:39;;;;;;;;;1.25;1.00;;;;;20.84;50.39;100432.22;4886252;29;45262;-74
2021/07/06 11:07:05;;;;;;;;;1.25;1.25;;;;;20.62;50.45;100385.09;4869935;29;45539;-73
2021/07/06 11:09:34;;;;;;;;;1.00;1.00;;;;;20.95;50.38;100434.94;4873313;29;47318;-73
2021/07/06 11:12:19;;;;;;;;;0.50;0.50;;;;;21.03;50.24;100456.91;4894040;29;45384;-74
2021/07/06 11:14:48;;;;;;;;;1.00;1.00;;;;;;;;4885783;29;45341;-73
2021/07/06 11:17:33;;;;;;;;;3.00;2.00;;;;;21.08;50.48;100445.66;4890471;29;45311;-74
2021/07/06 11:20:04;;;;;;;;;2.00;2.00;;;;;20.96;49.37;100409.53;4869689;29;47445;-74
2021/07/06 11:22:44;;;;;;;;;1.00;1.00;;;;;20.91;49.20;100407.22;4886101;29;45713;-74
2021/07/06 11:25:37;;;;;;;;;3.00;1.50;;;;;21.25;48.92;100450.59;4902392;29;45463;-74
2021/07/06 11:28:26;;;;;;;;;1.00;1.00;;;;;21.27;49.27;100439.59;4884442;29;46113;-74